Time;durP1;ratioP1;P1;durP2;ratioP2;P2;SDS_P1;SDS_P2;PMS_P1;PMS_P2;Temp;Humidity;BMP_temperature;BMP_pressure;BME280_temperature;BME280_humidity;BME280_pressure;Samples;Min_cycle;Max_cycle;Signal;HPM_P1;HPM_P2
2020/12/06 00:00:48;;;;;;;6.78;2.92;;;4.50;87.10;;;;;;5032966;28;20476;-76
2020/12/06 00:03:13;;;;;;;8.90;3.88;;;4.50;87.10;;;;;;5031164;28;20017;-75
2020/12/06 00:05:39;;;;;;;10.82;3.92;;;4.50;87.10;;;;;;5033038;28;20054;-75
2020/12/06 00:08:07;;;;;;;8.65;3.58;;;4.50;87.10;;;;;;5031311;28;20033;-84
2020/12/06 00:10:32;;;;;;;5.43;2.78;;;4.50;87.10;;;;;;5031456;28;20017;-76
2020/12/06 00:12:58;;;;;;;8.23;3.45;;;4.50;87.10;;;;;;5032521;28;20022;-75
2020/12/06 00:15:23;;;;;;;7.20;2.90;;;4.50;87.10;;;;;;5032642;28;20405;-75
2020/12/06 00:17:49;;;;;;;7.43;3.13;;;4.50;87.20;;;;;;5031908;28;20127;-74
2020/12/06 00:20:15;;;;;;;7.00;3.10;;;4.50;87.20;;;;;;5031956;28;20029;-75
2020/12/06 00:22:40;;;;;;;9.27;3.90;;;4.50;87.20;;;;;;5030949;28;20060;-75
2020/12/06 00:25:06;;;;;;;8.05;3.42;;;4.50;87.20;;;;;;5032407;28;20030;-84
2020/12/06 00:27:33;;;;;;;7.68;3.13;;;4.50;87.30;;;;;;5031251;28;20073;-75
2020/12/06 00:29:59;;;;;;;9.35;2.97;;;4.50;87.30;;;;;;5031330;28;20139;-75
2020/12/06 00:32:25;;;;;;;7.55;3.28;;;4.50;87.30;;;;;;5032121;28;20060;-75
2020/12/06 00:34:50;;;;;;;6.65;3.25;;;4.40;87.30;;;;;;5032586;28;20029;-75
2020/12/06 00:37:16;;;;;;;6.32;3.20;;;4.50;87.40;;;;;;5030505;28;20029;-75
2020/12/06 00:39:43;;;;;;;6.68;2.70;;;4.40;87.40;;;;;;5032363;28;20026;-75
2020/12/06 00:42:10;;;;;;;9.32;3.50;;;4.40;87.40;;;;;;5030108;28;20053;-76
2020/12/06 00:44:35;;;;;;;8.32;3.58;;;4.40;87.50;;;;;;5032370;28;20021;-76
2020/12/06 00:47:01;;;;;;;8.63;3.28;;;4.40;87.50;;;;;;5032229;28;20030;-75
2020/12/06 00:49:26;;;;;;;5.78;2.97;;;4.40;87.50;;;;;;5031582;28;20462;-75
2020/12/06 00:51:52;;;;;;;9.60;3.13;;;4.40;87.50;;;;;;5030933;28;20457;-75
2020/12/06 00:54:18;;;;;;;6.43;2.97;;;4.40;87.50;;;;;;5030360;28;20044;-75
2020/12/06 00:56:43;;;;;;;7.20;3.17;;;4.40;87.50;;;;;;5031784;28;20465;-75
2020/12/06 00:59:09;;;;;;;7.43;2.88;;;4.40;87.50;;;;;;5030025;28;20112;-78
2020/12/06 01:01:39;;;;;;;7.88;3.47;;;4.40;87.50;;;;;;5030937;28;20144;-75
2020/12/06 01:04:06;;;;;;;7.33;3.53;;;4.40;87.50;;;;;;5032298;28;20025;-75
2020/12/06 01:06:31;;;;;;;9.30;3.25;;;4.40;87.50;;;;;;5031285;28;20351;-76
2020/12/06 01:08:57;;;;;;;6.75;2.95;;;4.40;87.50;;;;;;5030748;28;20049;-75
2020/12/06 01:11:22;;;;;;;6.15;3.05;;;4.40;87.40;;;;;;5031438;28;20076;-75
2020/12/06 01:13:48;;;;;;;7.85;3.53;;;4.40;87.40;;;;;;5030690;28;20037;-75
2020/12/06 01:16:14;;;;;;;11.05;3.35;;;4.40;87.40;;;;;;5031390;28;20053;-75
2020/12/06 01:18:40;;;;;;;6.07;2.90;;;4.40;87.40;;;;;;5030628;28;20099;-76
2020/12/06 01:21:08;;;;;;;9.57;3.28;;;4.40;87.40;;;;;;5031908;28;20458;-76
2020/12/06 01:23:34;;;;;;;8.05;3.15;;;4.40;87.40;;;;;;5030174;28;20018;-76
2020/12/06 01:25:59;;;;;;;8.07;3.35;;;4.40;87.30;;;;;;5031820;28;20048;-76
2020/12/06 01:28:25;;;;;;;6.28;2.83;;;4.40;87.30;;;;;;5030071;28;20025;-75
2020/12/06 01:30:50;;;;;;;8.38;3.10;;;4.40;87.30;;;;;;5034237;28;20030;-75
2020/12/06 01:33:16;;;;;;;10.18;3.88;;;4.40;87.40;;;;;;5035343;28;20053;-76
2020/12/06 01:35:42;;;;;;;6.07;3.30;;;4.40;87.40;;;;;;5035814;28;20116;-76
2020/12/06 01:38:07;;;;;;;7.55;2.70;;;4.40;87.40;;;;;;5034502;28;20107;-75
2020/12/06 01:40:41;;;;;;;9.38;3.10;;;4.40;87.40;;;;;;5034007;28;20017;-75
2020/12/06 01:43:08;;;;;;;8.48;3.17;;;4.40;87.40;;;;;;5034448;28;20036;-76
2020/12/06 01:45:34;;;;;;;7.90;3.35;;;4.40;87.40;;;;;;5033838;28;20032;-76
2020/12/06 01:48:00;;;;;;;9.60;3.28;;;4.40;87.40;;;;;;5034523;28;20060;-76
2020/12/06 01:50:26;;;;;;;6.88;3.05;;;4.40;87.40;;;;;;5035104;28;20026;-76
2020/12/06 01:52:52;;;;;;;11.60;3.17;;;4.40;87.40;;;;;;5035284;28;20025;-76
2020/12/06 01:55:18;;;;;;;7.03;3.28;;;4.40;87.40;;;;;;5034714;28;20037;-75
2020/12/06 01:57:43;;;;;;;6.70;2.90;;;4.40;87.50;;;;;;5034188;28;20029;-75
2020/12/06 02:00:09;;;;;;;6.68;3.25;;;4.40;87.50;;;;;;5034809;28;20386;-75
2020/12/06 02:02:36;;;;;;;7.18;2.97;;;4.40;88.10;;;;;;5033430;28;20069;-75
2020/12/06 02:05:05;;;;;;;5.38;2.70;;;4.40;87.50;;;;;;5033944;28;20025;-75
2020/12/06 02:07:35;;;;;;;8.40;4.15;;;4.40;87.50;;;;;;5035030;28;20029;-75
2020/12/06 02:10:01;;;;;;;8.32;3.08;;;4.40;88.10;;;;;;5034901;28;20032;-76
2020/12/06 02:12:26;;;;;;;6.80;2.65;;;4.40;87.40;;;;;;5033225;28;20109;-77
2020/12/06 02:14:52;;;;;;;6.57;2.90;;;4.40;87.40;;;;;;5033829;28;20040;-75
2020/12/06 02:17:18;;;;;;;7.70;2.95;;;4.40;87.40;;;;;;5033020;28;20033;-76
2020/12/06 02:19:44;;;;;;;6.80;3.13;;;4.40;87.30;;;;;;5033474;28;20477;-75
2020/12/06 02:22:09;;;;;;;8.23;3.58;;;4.40;87.30;;;;;;5033141;28;20021;-76
2020/12/06 02:24:35;;;;;;;9.15;3.00;;;4.50;87.30;;;;;;5032945;28;20031;-75
2020/12/06 02:27:01;;;;;;;6.68;2.92;;;4.50;87.30;;;;;;5034701;28;20033;-76
2020/12/06 02:29:26;;;;;;;7.75;3.00;;;4.50;87.20;;;;;;5032856;28;20022;-76
2020/12/06 02:31:52;;;;;;;6.68;3.08;;;4.50;87.30;;;;;;5034584;28;20021;-75
2020/12/06 02:34:17;;;;;;;6.18;2.67;;;4.50;87.20;;;;;;5032856;28;20469;-75
2020/12/06 02:36:43;;;;;;;8.05;3.05;;;4.50;87.20;;;;;;5033473;28;20033;-76
2020/12/06 02:39:11;;;;;;;7.65;3.38;;;4.50;87.30;;;;;;5034800;28;20492;-76
2020/12/06 02:41:41;;;;;;;7.18;3.15;;;4.50;87.20;;;;;;5033731;28;20025;-75
2020/12/06 02:44:07;;;;;;;6.43;3.53;;;4.50;87.20;;;;;;5033217;28;20017;-75
2020/12/06 02:46:34;;;;;;;6.15;2.55;;;4.50;87.20;;;;;;5032501;28;20025;-75
2020/12/06 02:49:00;;;;;;;7.53;3.42;;;4.60;87.20;;;;;;5033056;28;20453;-75
2020/12/06 02:51:26;;;;;;;6.03;3.40;;;4.60;87.20;;;;;;5033770;28;20056;-76
2020/12/06 02:53:52;;;;;;;5.60;2.88;;;4.60;87.20;;;;;;5032870;28;20061;-76
2020/12/06 02:56:17;;;;;;;6.10;2.33;;;4.60;87.20;;;;;;5033577;28;20025;-76
2020/12/06 02:58:43;;;;;;;7.65;2.85;;;4.60;87.20;;;;;;5033926;28;20393;-75
2020/12/06 03:01:09;;;;;;;8.90;3.10;;;4.60;87.20;;;;;;5032827;28;20041;-74
2020/12/06 03:03:35;;;;;;;5.22;2.92;;;4.60;87.20;;;;;;5033472;28;20090;-75
2020/12/06 03:06:01;;;;;;;7.55;3.22;;;4.60;87.20;;;;;;5034248;28;20116;-76
2020/12/06 03:08:26;;;;;;;6.93;3.47;;;4.60;87.20;;;;;;5033220;28;20083;-76
2020/12/06 03:10:52;;;;;;;6.22;3.25;;;4.60;87.20;;;;;;5032591;28;20025;-76
2020/12/06 03:13:17;;;;;;;6.68;2.78;;;4.60;87.20;;;;;;5032249;28;20044;-76
2020/12/06 03:15:43;;;;;;;10.32;3.45;;;4.60;87.20;;;;;;5033763;28;20036;-76
2020/12/06 03:18:09;;;;;;;5.93;3.30;;;4.60;87.20;;;;;;5032290;28;20160;-75
2020/12/06 03:20:34;;;;;;;6.80;2.78;;;4.60;87.20;;;;;;5032901;28;20022;-75
2020/12/06 03:23:00;;;;;;;7.47;3.15;;;4.60;87.20;;;;;;5032229;28;20389;-76
2020/12/06 03:25:26;;;;;;;10.35;3.30;;;4.60;87.20;;;;;;5031900;28;20116;-76
2020/12/06 03:27:51;;;;;;;8.75;3.30;;;4.60;87.20;;;;;;5033352;28;20032;-76
2020/12/06 03:30:17;;;;;;;7.65;3.25;;;4.60;87.20;;;;;;5031594;28;20124;-83
2020/12/06 03:32:43;;;;;;;6.53;2.50;;;4.60;87.20;;;;;;5031451;28;20108;-75
2020/12/06 03:35:09;;;;;;;7.70;2.83;;;4.70;87.20;;;;;;5033111;28;20030;-77
2020/12/06 03:37:35;;;;;;;5.40;2.53;;;4.60;87.20;;;;;;5032284;28;20064;-75
2020/12/06 03:40:01;;;;;;;7.20;2.83;;;4.70;87.20;;;;;;5031433;28;20454;-76
2020/12/06 03:42:27;;;;;;;7.20;3.13;;;4.70;87.20;;;;;;5032130;28;20420;-76
2020/12/06 03:44:52;;;;;;;8.23;3.20;;;4.70;87.20;;;;;;5033066;28;20073;-76
2020/12/06 03:47:19;;;;;;;7.50;2.92;;;4.70;87.80;;;;;;5032689;28;20074;-77
2020/12/06 03:49:45;;;;;;;6.43;2.63;;;4.70;87.20;;;;;;5033203;28;20022;-75
2020/12/06 03:52:11;;;;;;;8.75;2.92;;;4.70;87.10;;;;;;5032079;28;20021;-76
2020/12/06 03:54:36;;;;;;;9.32;3.30;;;4.70;87.10;;;;;;5031322;28;20492;-76
2020/12/06 03:57:02;;;;;;;7.32;3.33;;;4.70;87.10;;;;;;5031525;28;20116;-76
2020/12/06 03:59:28;;;;;;;7.15;2.90;;;4.70;87.10;;;;;;5032514;28;20161;-76
2020/12/06 04:01:54;;;;;;;7.07;2.80;;;4.80;87.10;;;;;;5031845;28;20056;-75
2020/12/06 04:04:19;;;;;;;11.18;3.72;;;4.80;87.10;;;;;;5031217;28;20026;-76
2020/12/06 04:06:45;;;;;;;6.78;2.72;;;4.80;87.00;;;;;;5031599;28;20026;-75
2020/12/06 04:09:11;;;;;;;6.03;2.60;;;4.70;87.00;;;;;;5031480;28;20429;-75
2020/12/06 04:11:36;;;;;;;9.60;3.85;;;4.80;87.00;;;;;;5032251;28;20014;-76
2020/12/06 04:14:02;;;;;;;7.25;2.80;;;4.80;87.00;;;;;;5031530;28;20014;-76
2020/12/06 04:16:28;;;;;;;6.80;2.88;;;4.80;86.90;;;;;;5030880;28;20033;-76
2020/12/06 04:18:53;;;;;;;6.93;2.90;;;4.80;86.90;;;;;;5032703;28;20022;-76
2020/12/06 04:21:19;;;;;;;9.75;3.00;;;4.80;86.90;;;;;;5031255;28;20541;-82
2020/12/06 04:23:45;;;;;;;6.15;2.67;;;4.80;86.90;;;;;;5032328;28;20101;-74
2020/12/06 04:26:10;;;;;;;6.40;2.53;;;4.90;86.90;;;;;;5031220;28;20080;-76
2020/12/06 04:28:36;;;;;;;8.30;2.85;;;4.80;86.90;;;;;;5030636;28;20355;-77
2020/12/06 04:31:02;;;;;;;6.65;3.13;;;4.90;86.90;;;;;;5032455;28;20025;-76
2020/12/06 04:33:27;;;;;;;8.13;3.35;;;4.90;86.90;;;;;;5030730;28;20125;-75
2020/12/06 04:35:53;;;;;;;9.70;3.42;;;4.90;86.90;;;;;;5031407;28;20469;-75
2020/12/06 04:38:19;;;;;;;6.32;2.90;;;4.90;86.90;;;;;;5031008;28;20022;-77
2020/12/06 04:40:45;;;;;;;9.07;2.70;;;4.90;86.90;;;;;;5030673;28;20140;-76
2020/12/06 04:43:14;;;;;;;7.13;2.75;;;4.90;86.90;;;;;;5032456;28;20053;-76
2020/12/06 04:45:40;;;;;;;7.43;2.95;;;4.90;86.90;;;;;;5031926;28;20179;-76
2020/12/06 04:48:08;;;;;;;10.07;3.00;;;4.90;86.90;;;;;;5032389;28;20110;-76
2020/12/06 04:50:35;;;;;;;8.23;3.22;;;4.90;86.90;;;;;;5031859;28;20048;-75
2020/12/06 04:53:03;;;;;;;6.78;2.72;;;4.90;86.90;;;;;;5032521;28;20176;-76
2020/12/06 04:55:31;;;;;;;5.63;2.70;;;4.90;86.90;;;;;;5030178;28;20021;-76
2020/12/06 04:57:58;;;;;;;9.13;3.28;;;4.90;86.90;;;;;;5030546;28;20025;-74
2020/12/06 05:00:31;;;;;;;6.88;2.70;;;4.90;86.90;;;;;;5030290;28;20029;-76
2020/12/06 05:02:59;;;;;;;5.82;2.85;;;4.90;86.90;;;;;;5031194;28;20036;-76
2020/12/06 05:05:33;;;;;;;7.53;3.33;;;4.90;86.90;;;;;;5035800;28;20104;-76
2020/12/06 05:08:03;;;;;;;7.40;3.30;;;4.90;86.90;;;;;;5036318;28;20021;-75
2020/12/06 05:10:29;;;;;;;7.72;2.65;;;4.90;86.80;;;;;;5035723;28;20032;-75
2020/12/06 05:12:54;;;;;;;11.55;3.67;;;4.90;86.90;;;;;;5034780;28;20026;-75
2020/12/06 05:15:20;;;;;;;6.70;2.67;;;4.90;86.90;;;;;;5036102;28;20492;-75
2020/12/06 05:17:46;;;;;;;8.98;3.40;;;4.90;86.90;;;;;;5034142;28;20485;-76
2020/12/06 05:20:12;;;;;;;8.73;3.83;;;4.90;86.90;;;;;;5035770;28;20053;-75
2020/12/06 05:22:46;;;;;;;6.32;3.15;;;4.90;86.90;;;;;;5035425;28;20458;-76
2020/12/06 05:25:15;;;;;;;10.57;3.95;;;5.00;86.90;;;;;;5035813;28;20061;-76
2020/12/06 05:27:42;;;;;;;8.77;2.85;;;4.90;86.80;;;;;;5035273;28;20090;-74
2020/12/06 05:30:08;;;;;;;7.68;3.05;;;4.90;86.80;;;;;;5034472;28;20433;-75
2020/12/06 05:32:34;;;;;;;10.15;3.50;;;5.00;86.90;;;;;;5034950;28;20029;-75
2020/12/06 05:35:00;;;;;;;10.95;3.85;;;5.00;86.80;;;;;;5035684;28;20381;-75
2020/12/06 05:37:26;;;;;;;11.90;3.88;;;5.00;86.90;;;;;;5033695;28;20025;-75
2020/12/06 05:40:07;;;;;;;8.55;3.53;;;4.90;86.90;;;;;;5035602;28;20033;-74
2020/12/06 05:42:34;;;;;;;8.75;3.30;;;4.90;86.80;;;;;;5034755;28;20022;-75
2020/12/06 05:45:00;;;;;;;7.95;3.38;;;4.90;86.80;;;;;;5034374;28;20025;-75
2020/12/06 05:47:26;;;;;;;7.65;3.13;;;5.00;86.90;;;;;;5033727;28;20029;-76
2020/12/06 05:49:56;;;;;;;7.78;3.53;;;4.90;86.80;;;;;;5035459;28;20022;-75
2020/12/06 05:52:23;;;;;;;8.98;3.72;;;4.90;86.80;;;;;;5034073;28;20094;-74
2020/12/06 05:54:49;;;;;;;8.63;4.00;;;4.90;86.80;;;;;;5034804;28;20040;-74
2020/12/06 05:57:15;;;;;;;8.13;3.10;;;5.00;86.80;;;;;;5033995;28;20030;-75
2020/12/06 05:59:41;;;;;;;6.47;2.97;;;5.00;86.80;;;;;;5033086;28;20053;-75
2020/12/06 06:02:08;;;;;;;8.57;3.75;;;5.00;86.80;;;;;;5035136;28;20080;-74
2020/12/06 06:04:38;;;;;;;11.35;4.25;;;5.00;86.70;;;;;;5033169;28;20048;-75
2020/12/06 06:07:07;;;;;;;8.87;3.20;;;5.00;86.70;;;;;;5033532;28;20029;-75
2020/12/06 06:09:41;;;;;;;11.73;3.30;;;5.00;86.70;;;;;;5034374;28;20600;-75
2020/12/06 06:12:21;;;;;;;10.65;4.05;;;5.10;86.70;;;;;;5033331;28;20048;-75
2020/12/06 06:14:48;;;;;;;7.30;3.35;;;5.00;86.70;;;;;;5032514;28;20084;-75
2020/12/06 06:17:15;;;;;;;11.68;4.13;;;5.00;86.60;;;;;;5034505;28;20033;-75
2020/12/06 06:19:43;;;;;;;11.38;3.72;;;5.00;86.70;;;;;;5034257;28;20033;-75
2020/12/06 06:22:08;;;;;;;9.02;3.47;;;5.00;86.60;;;;;;5033475;28;20022;-75
2020/12/06 06:24:37;;;;;;;11.45;4.47;;;5.00;86.60;;;;;;5034560;28;20151;-75
2020/12/06 06:27:03;;;;;;;9.65;3.78;;;5.00;86.70;;;;;;5034950;28;20032;-75
2020/12/06 06:29:29;;;;;;;13.20;5.32;;;5.00;86.70;;;;;;5032791;28;20112;-75
2020/12/06 06:31:55;;;;;;;10.20;3.80;;;5.00;86.70;;;;;;5019294;28;20418;-75
2020/12/06 06:34:25;;;;;;;11.52;4.85;;;5.00;86.70;;;;;;5014480;28;20061;-75
2020/12/06 06:36:52;;;;;;;13.23;4.82;;;5.00;86.70;;;;;;5014214;28;20117;-75
2020/12/06 06:39:22;;;;;;;8.70;3.97;;;5.00;86.70;;;;;;5013254;28;20017;-75
2020/12/06 06:42:17;;;;;;;13.13;4.43;;;5.00;86.60;;;;;;5014154;28;20026;-75
2020/12/06 06:44:44;;;;;;;10.15;3.67;;;5.00;86.50;;;;;;5004398;28;20061;-77
2020/12/06 06:47:14;;;;;;;12.00;4.22;;;5.00;86.50;;;;;;5012945;28;20029;-75
2020/12/06 06:50:00;;;;;;;9.32;4.15;;;5.10;86.50;;;;;;5014276;28;20030;-75
2020/12/06 06:52:27;;;;;;;10.32;3.80;;;5.10;86.40;;;;;;5012467;28;20030;-75
2020/12/06 06:54:55;;;;;;;10.32;3.80;;;5.10;86.50;;;;;;5013079;28;20058;-74
2020/12/06 06:57:22;;;;;;;9.60;3.63;;;5.10;86.50;;;;;;5014165;28;20040;-75
2020/12/06 06:59:49;;;;;;;13.73;4.43;;;5.10;86.50;;;;;;5012318;28;20707;-75
2020/12/06 07:02:24;;;;;;;7.95;4.00;;;5.10;86.50;;;;;;5014093;28;20033;-75
2020/12/06 07:04:49;;;;;;;10.85;4.20;;;5.10;86.50;;;;;;5012507;28;20061;-75
2020/12/06 07:07:16;;;;;;;8.68;3.47;;;5.10;86.50;;;;;;4982794;28;20645;-75
2020/12/06 07:09:42;;;;;;;9.73;3.90;;;5.10;86.50;;;;;;5013711;28;20026;-76
2020/12/06 07:12:09;;;;;;;12.27;3.67;;;5.10;86.50;;;;;;5012938;28;20374;-75
2020/12/06 07:14:35;;;;;;;9.77;3.22;;;5.10;86.50;;;;;;5012030;28;20073;-75
2020/12/06 07:17:01;;;;;;;10.73;4.32;;;5.10;86.50;;;;;;5014040;28;20037;-76
2020/12/06 07:19:27;;;;;;;10.45;4.07;;;5.10;86.40;;;;;;5014017;28;20373;-75
2020/12/06 07:21:53;;;;;;;7.70;3.58;;;5.20;86.50;;;;;;5012108;28;20065;-76
2020/12/06 07:24:19;;;;;;;10.32;4.13;;;5.20;86.50;;;;;;5012593;28;20026;-76
2020/12/06 07:26:46;;;;;;;10.27;3.72;;;5.20;86.40;;;;;;5012330;28;20056;-76
2020/12/06 07:29:13;;;;;;;9.75;3.88;;;5.20;86.50;;;;;;5012352;28;20025;-78
2020/12/06 07:31:39;;;;;;;6.55;3.50;;;5.10;86.50;;;;;;5013246;28;20105;-76
2020/12/06 07:34:06;;;;;;;12.15;4.05;;;5.10;86.50;;;;;;5011682;28;20433;-76
2020/12/06 07:36:44;;;;;;;10.75;3.97;;;5.10;86.50;;;;;;5012455;28;20551;-84
2020/12/06 07:39:15;;;;;;;7.40;4.00;;;5.10;86.50;;;;;;5012981;28;20466;-76
2020/12/06 07:41:45;;;;;;;11.48;4.38;;;5.10;86.70;;;;;;5011185;28;20109;-76
2020/12/06 07:44:11;;;;;;;9.93;3.67;;;5.10;86.70;;;;;;5011393;28;20445;-75
2020/12/06 07:46:38;;;;;;;10.40;3.65;;;5.00;86.60;;;;;;5012110;28;20030;-76
2020/12/06 07:49:03;;;;;;;10.07;4.50;;;5.00;86.70;;;;;;5012657;28;20053;-77
2020/12/06 07:51:29;;;;;;;12.90;4.97;;;5.00;86.70;;;;;;5027873;28;20045;-77
2020/12/06 07:53:56;;;;;;;11.30;4.90;;;5.10;86.70;;;;;;5012320;28;20455;-77
2020/12/06 07:56:24;;;;;;;13.57;4.68;;;5.10;86.70;;;;;;5011139;28;20029;-76
2020/12/06 07:59:15;;;;;;;11.43;4.30;;;5.10;86.60;;;;;;5012309;28;20454;-76
2020/12/06 08:01:43;;;;;;;12.57;4.03;;;5.10;86.50;;;;;;5009659;28;20045;-75
2020/12/06 08:04:13;;;;;;;7.60;3.53;;;5.20;86.50;;;;;;5012734;28;20118;-76
2020/12/06 08:06:43;;;;;;;9.80;4.38;;;5.20;86.50;;;;;;5012729;28;20047;-75
2020/12/06 08:09:09;;;;;;;10.25;3.95;;;5.20;86.40;;;;;;5011819;28;20103;-76
2020/12/06 08:11:40;;;;;;;10.88;3.90;;;5.20;86.40;;;;;;5012190;28;20021;-76
2020/12/06 08:14:05;;;;;;;13.45;4.00;;;5.20;86.30;;;;;;5011774;28;20061;-75
2020/12/06 08:16:31;;;;;;;11.40;4.45;;;5.30;86.30;;;;;;5013449;28;20038;-79
2020/12/06 08:19:02;;;;;;;8.20;4.03;;;5.30;86.20;;;;;;5012678;28;20497;-77
2020/12/06 08:21:43;;;;;;;10.75;4.32;;;5.30;86.20;;;;;;5012895;28;20062;-76
2020/12/06 08:24:39;;;;;;;9.48;3.78;;;5.30;86.10;;;;;;5012911;28;20030;-76
2020/12/06 08:27:18;;;;;;;10.13;4.18;;;5.30;86.00;;;;;;5003103;28;20397;-76
2020/12/06 08:29:46;;;;;;;11.95;4.05;;;5.30;86.00;;;;;;5011325;28;20030;-76
2020/12/06 08:32:11;;;;;;;10.57;3.50;;;5.30;86.00;;;;;;5011446;28;20346;-76
2020/12/06 08:34:37;;;;;;;11.90;4.72;;;5.30;86.00;;;;;;5011033;28;20530;-77
2020/12/06 08:37:14;;;;;;;12.38;4.13;;;5.40;86.00;;;;;;5011231;28;20438;-76
2020/12/06 08:39:40;;;;;;;10.18;4.13;;;5.40;86.00;;;;;;5011842;28;20049;-75
2020/12/06 08:42:22;;;;;;;9.95;3.63;;;5.40;86.00;;;;;;5011527;28;20120;-75
2020/12/06 08:44:56;;;;;;;9.23;3.35;;;5.40;85.90;;;;;;5012489;28;20018;-76
2020/12/06 08:47:24;;;;;;;11.32;4.15;;;5.40;85.90;;;;;;5011013;28;20034;-76
2020/12/06 08:50:02;;;;;;;12.10;4.28;;;5.40;85.90;;;;;;5010602;28;20022;-75
2020/12/06 08:52:28;;;;;;;9.63;4.10;;;5.50;85.90;;;;;;5011683;28;20462;-77
2020/12/06 08:54:54;;;;;;;13.98;4.18;;;5.50;86.00;;;;;;5030386;28;20040;-76
2020/12/06 08:57:24;;;;;;;12.00;4.38;;;5.50;86.60;;;;;;5032445;28;20036;-75
2020/12/06 08:59:50;;;;;;;9.43;4.28;;;5.50;85.90;;;;;;5031290;28;20445;-76
2020/12/06 09:02:23;;;;;;;18.17;5.22;;;5.50;86.00;;;;;;5031223;28;20079;-75
2020/12/06 09:04:50;;;;;;;12.05;4.72;;;5.50;86.00;;;;;;5031209;28;20025;-76
2020/12/06 09:07:15;;;;;;;14.13;4.35;;;5.50;86.00;;;;;;5029655;28;20390;-76
2020/12/06 09:09:41;;;;;;;13.77;5.30;;;5.50;86.00;;;;;;5031909;28;20505;-76
2020/12/06 09:12:07;;;;;;;12.82;4.45;;;5.50;85.90;;;;;;5031759;28;20068;-76
2020/12/06 09:14:33;;;;;;;11.27;4.22;;;5.50;86.00;;;;;;5032220;28;20041;-75
2020/12/06 09:16:58;;;;;;;12.50;4.13;;;5.50;85.90;;;;;;5031639;28;20116;-76
2020/12/06 09:19:24;;;;;;;13.52;4.05;;;5.50;85.90;;;;;;5031974;28;20104;-76
2020/12/06 09:21:49;;;;;;;9.60;3.85;;;5.50;85.90;;;;;;5030364;28;20300;-75
2020/12/06 09:24:15;;;;;;;10.15;3.38;;;5.60;85.90;;;;;;5032253;28;20026;-76
2020/12/06 09:26:40;;;;;;;13.52;4.25;;;5.60;85.80;;;;;;5031442;28;20116;-74
2020/12/06 09:29:06;;;;;;;13.43;4.55;;;5.60;85.70;;;;;;5030684;28;20052;-76
2020/12/06 09:31:32;;;;;;;11.75;3.92;;;5.70;85.70;;;;;;5031943;28;20374;-76
2020/12/06 09:33:57;;;;;;;10.13;4.40;;;5.70;85.60;;;;;;5031467;28;20029;-75
2020/12/06 09:36:23;;;;;;;11.93;4.63;;;5.80;85.70;;;;;;5030525;28;20021;-75
2020/12/06 09:38:49;;;;;;;11.90;3.30;;;5.80;85.50;;;;;;5030042;28;20026;-76
2020/12/06 09:41:15;;;;;;;10.65;3.47;;;5.90;85.40;;;;;;5030704;28;20113;-75
2020/12/06 09:43:42;;;;;;;13.18;4.65;;;5.90;85.20;;;;;;5031324;28;20022;-76
2020/12/06 09:46:13;;;;;;;12.85;4.45;;;6.00;85.10;;;;;;5031620;28;20101;-77
2020/12/06 09:48:40;;;;;;;11.15;3.72;;;6.00;85.10;;;;;;5029982;28;20049;-76
2020/12/06 09:51:07;;;;;;;16.48;4.82;;;6.10;85.10;;;;;;5032699;28;20171;-76
2020/12/06 09:53:33;;;;;;;15.32;4.60;;;6.10;85.00;;;;;;5033728;28;20029;-76
2020/12/06 09:55:58;;;;;;;10.00;4.07;;;6.10;85.00;;;;;;5034703;28;20018;-76
2020/12/06 09:58:24;;;;;;;9.80;3.92;;;6.10;84.90;;;;;;5034041;28;20366;-76
2020/12/06 10:00:50;;;;;;;9.95;4.10;;;6.20;85.60;;;;;;5033330;28;20091;-76
2020/12/06 10:03:15;;;;;;;8.98;3.08;;;6.20;84.90;;;;;;5035474;28;20108;-77
2020/12/06 10:05:43;;;;;;;12.07;4.70;;;6.20;84.90;;;;;;5033093;28;20392;-75
2020/12/06 10:08:08;;;;;;;11.65;3.70;;;6.20;85.00;;;;;;5035347;28;20492;-78
2020/12/06 10:10:34;;;;;;;13.35;4.78;;;6.20;85.00;;;;;;5035011;28;20029;-76
2020/12/06 10:12:59;;;;;;;10.45;3.95;;;6.20;85.00;;;;;;5034411;28;20030;-76
2020/12/06 10:15:25;;;;;;;12.15;3.83;;;6.20;85.00;;;;;;5034983;28;20029;-76
2020/12/06 10:17:51;;;;;;;10.43;4.05;;;6.30;85.00;;;;;;5033124;28;20044;-76
2020/12/06 10:20:19;;;;;;;10.57;3.55;;;6.30;85.00;;;;;;5034904;28;20470;-76
2020/12/06 10:22:45;;;;;;;13.27;4.28;;;6.30;85.00;;;;;;5033168;28;20022;-77
2020/12/06 10:25:11;;;;;;;9.40;3.63;;;6.30;85.00;;;;;;5033524;28;20401;-75
2020/12/06 10:27:36;;;;;;;7.55;3.70;;;6.30;85.00;;;;;;5033485;28;20458;-76
2020/12/06 10:30:04;;;;;;;9.30;3.45;;;6.40;85.00;;;;;;5032531;28;20381;-78
2020/12/06 10:32:30;;;;;;;10.43;4.03;;;6.40;85.00;;;;;;5033409;28;20025;-76
2020/12/06 10:34:55;;;;;;;11.60;4.72;;;6.40;84.90;;;;;;5034601;28;20389;-76
2020/12/06 10:37:21;;;;;;;8.00;3.40;;;6.50;85.00;;;;;;5033104;28;20037;-76
2020/12/06 10:39:47;;;;;;;11.98;3.80;;;6.50;85.00;;;;;;5034283;28;20087;-76
2020/12/06 10:42:13;;;;;;;11.40;3.83;;;6.50;85.50;;;;;;5032877;28;20049;-75
2020/12/06 10:44:38;;;;;;;7.95;4.05;;;6.60;84.90;;;;;;5049981;28;20029;-76
2020/12/06 10:47:04;;;;;;;17.58;5.43;;;6.60;84.80;;;;;;5032644;28;20454;-76
2020/12/06 10:49:30;;;;;;;12.55;4.70;;;6.60;85.00;;;;;;5034348;28;20461;-76
2020/12/06 10:51:56;;;;;;;10.40;3.38;;;6.70;84.80;;;;;;5032644;28;20104;-76
2020/12/06 10:54:22;;;;;;;12.52;3.63;;;6.70;84.70;;;;;;5034445;28;20512;-76
2020/12/06 10:56:48;;;;;;;8.63;3.47;;;6.80;84.60;;;;;;5032235;28;20087;-77
2020/12/06 10:59:13;;;;;;;12.95;3.33;;;6.80;84.50;;;;;;5034107;28;20053;-76
2020/12/06 11:01:39;;;;;;;10.85;4.35;;;6.90;84.60;;;;;;5034032;28;20453;-76
2020/12/06 11:04:06;;;;;;;9.73;3.78;;;6.90;84.60;;;;;;5033570;28;20025;-76
2020/12/06 11:06:33;;;;;;;12.85;3.92;;;6.90;84.60;;;;;;5033887;28;20033;-76
2020/12/06 11:08:59;;;;;;;9.65;3.65;;;7.00;84.50;;;;;;5033430;28;20025;-76
2020/12/06 11:11:25;;;;;;;10.35;3.70;;;7.00;84.50;;;;;;5033869;28;20104;-76
2020/12/06 11:13:51;;;;;;;12.43;4.18;;;7.00;84.40;;;;;;5033212;28;20112;-76
2020/12/06 11:16:19;;;;;;;11.70;3.80;;;7.10;84.40;;;;;;5033738;28;20022;-76
2020/12/06 11:18:46;;;;;;;12.90;4.10;;;7.10;84.30;;;;;;5031761;28;20033;-76
2020/12/06 11:21:14;;;;;;;7.70;3.83;;;7.10;84.30;;;;;;5033719;28;20029;-76
2020/12/06 11:23:40;;;;;;;11.23;3.70;;;7.20;84.30;;;;;;5033511;28;20024;-76
2020/12/06 11:26:06;;;;;;;11.27;4.10;;;7.10;84.30;;;;;;5033034;28;20454;-76
2020/12/06 11:28:32;;;;;;;9.50;3.72;;;7.20;84.40;;;;;;5033390;28;20033;-76
2020/12/06 11:30:58;;;;;;;11.00;3.80;;;7.20;84.30;;;;;;5031692;28;20025;-75
2020/12/06 11:33:23;;;;;;;7.63;3.40;;;7.30;84.80;;;;;;5033309;28;20021;-76
2020/12/06 11:35:49;;;;;;;11.23;4.68;;;7.30;84.10;;;;;;5032867;28;20045;-76
2020/12/06 11:38:15;;;;;;;12.73;4.25;;;7.30;84.10;;;;;;5031650;28;20061;-76
2020/12/06 11:40:41;;;;;;;13.48;4.38;;;7.30;84.00;;;;;;5033003;28;20029;-76
2020/12/06 11:43:07;;;;;;;9.68;3.05;;;7.30;83.90;;;;;;5032983;28;20026;-76
2020/12/06 11:45:33;;;;;;;13.02;4.80;;;7.30;83.90;;;;;;5032769;28;20101;-76
2020/12/06 11:47:59;;;;;;;10.25;3.65;;;7.30;83.90;;;;;;5031194;28;20030;-76
2020/12/06 11:50:24;;;;;;;11.27;4.07;;;7.40;83.90;;;;;;5028698;28;20056;-76
2020/12/06 11:52:50;;;;;;;10.70;4.05;;;7.40;83.90;;;;;;5032401;28;20026;-74
2020/12/06 11:55:16;;;;;;;9.63;4.03;;;7.40;83.90;;;;;;5030419;28;20026;-75
2020/12/06 11:57:41;;;;;;;12.70;4.10;;;7.40;84.20;;;;;;5031125;28;20536;-77
2020/12/06 12:00:08;;;;;;;9.75;3.35;;;7.40;83.90;;;;;;5028760;28;20053;-76
2020/12/06 12:02:34;;;;;;;10.18;3.97;;;7.40;83.90;;;;;;5030554;28;20493;-76
2020/12/06 12:05:00;;;;;;;10.10;3.78;;;7.40;83.90;;;;;;5028865;28;20052;-76
2020/12/06 12:07:26;;;;;;;8.68;3.25;;;7.40;83.80;;;;;;5028658;28;20116;-75
2020/12/06 12:09:52;;;;;;;6.70;3.00;;;7.40;83.80;;;;;;5029997;28;20125;-76
2020/12/06 12:12:18;;;;;;;9.45;3.35;;;7.40;83.80;;;;;;5030118;28;20424;-75
2020/12/06 12:14:44;;;;;;;11.68;3.90;;;7.40;83.70;;;;;;5028699;28;20283;-75
2020/12/06 12:17:09;;;;;;;9.55;3.80;;;7.50;83.80;;;;;;5025750;28;20017;-75
2020/12/06 12:19:35;;;;;;;10.32;4.20;;;7.50;83.80;;;;;;5029219;28;20434;-76
2020/12/06 12:22:01;;;;;;;12.80;4.32;;;7.50;83.80;;;;;;5028478;28;20036;-74
2020/12/06 12:24:27;;;;;;;8.25;3.28;;;7.50;83.80;;;;;;5030531;28;20083;-75
2020/12/06 12:27:00;;;;;;;9.73;3.90;;;7.50;83.80;;;;;;5029269;28;20393;-76
2020/12/06 12:29:26;;;;;;;12.75;4.30;;;7.50;83.80;;;;;;5030339;28;20024;-75
2020/12/06 12:31:51;;;;;;;10.00;3.83;;;7.50;83.80;;;;;;5031800;28;20029;-76
2020/12/06 12:34:17;;;;;;;9.68;3.67;;;7.50;83.90;;;;;;5031334;28;20021;-75
2020/12/06 12:36:44;;;;;;;10.40;3.90;;;7.50;83.90;;;;;;5030736;28;20033;-76
2020/12/06 12:39:10;;;;;;;13.20;3.60;;;7.50;83.90;;;;;;5030959;28;20032;-75
2020/12/06 12:41:36;;;;;;;9.65;3.10;;;7.60;83.90;;;;;;5030974;28;20381;-76
2020/12/06 12:44:04;;;;;;;11.45;3.70;;;7.60;83.90;;;;;;5031841;28;20033;-76
2020/12/06 12:46:34;;;;;;;11.35;3.53;;;7.60;83.90;;;;;;5032243;28;20018;-76
2020/12/06 12:49:01;;;;;;;11.27;3.63;;;7.60;83.80;;;;;;5031938;28;20112;-75
2020/12/06 12:51:27;;;;;;;8.95;3.38;;;7.60;83.80;;;;;;5031888;28;20473;-76